sensor_id;sensor_type;location;lat;lon;timestamp;temperature;humidity
728;DHT22;347;48.780;9.158;2023-04-01T00:01:48;10.20;40.10
728;DHT22;347;48.780;9.158;2023-04-01T00:04:14;10.20;40.40
728;DHT22;347;48.780;9.158;2023-04-01T00:06:41;10.20;40.40
728;DHT22;347;48.780;9.158;2023-04-01T00:09:06;10.30;40.20
728;DHT22;347;48.780;9.158;2023-04-01T00:11:32;10.30;40.40
728;DHT22;347;48.780;9.158;2023-04-01T00:13:58;10.30;40.30
728;DHT22;347;48.780;9.158;2023-04-01T00:16:24;10.30;40.80
728;DHT22;347;48.780;9.158;2023-04-01T00:18:50;10.40;41.10
728;DHT22;347;48.780;9.158;2023-04-01T00:21:16;10.30;40.40
728;DHT22;347;48.780;9.158;2023-04-01T00:23:42;10.30;40.50
728;DHT22;347;48.780;9.158;2023-04-01T00:26:09;10.30;40.80
728;DHT22;347;48.780;9.158;2023-04-01T00:28:35;10.30;40.80
728;DHT22;347;48.780;9.158;2023-04-01T00:31:06;10.40;41.00
728;DHT22;347;48.780;9.158;2023-04-01T00:33:31;10.30;40.00
728;DHT22;347;48.780;9.158;2023-04-01T00:36:09;10.30;40.40
728;DHT22;347;48.780;9.158;2023-04-01T00:38:35;10.30;40.20
728;DHT22;347;48.780;9.158;2023-04-01T00:41:01;10.20;40.20
728;DHT22;347;48.780;9.158;2023-04-01T00:43:27;10.30;40.40
728;DHT22;347;48.780;9.158;2023-04-01T00:45:53;10.30;40.10
728;DHT22;347;48.780;9.158;2023-04-01T00:48:25;10.30;40.20
728;DHT22;347;48.780;9.158;2023-04-01T00:51:01;10.30;40.70
728;DHT22;347;48.780;9.158;2023-04-01T00:53:28;10.30;41.20
728;DHT22;347;48.780;9.158;2023-04-01T00:56:22;10.20;41.80
728;DHT22;347;48.780;9.158;2023-04-01T00:58:56;10.20;42.90
728;DHT22;347;48.780;9.158;2023-04-01T01:01:24;10.20;42.70
728;DHT22;347;48.780;9.158;2023-04-01T01:03:50;10.20;42.50
728;DHT22;347;48.780;9.158;2023-04-01T01:09:44;10.30;43.20
728;DHT22;347;48.780;9.158;2023-04-01T01:12:21;10.30;42.60
728;DHT22;347;48.780;9.158;2023-04-01T01:14:56;10.20;43.70
728;DHT22;347;48.780;9.158;2023-04-01T01:31:02;10.00;45.60
728;DHT22;347;48.780;9.158;2023-04-01T01:36:13;10.00;45.40
728;DHT22;347;48.780;9.158;2023-04-01T01:38:39;10.00;45.40
728;DHT22;347;48.780;9.158;2023-04-01T01:41:07;10.00;45.80
728;DHT22;347;48.780;9.158;2023-04-01T01:43:38;9.90;46.80
728;DHT22;347;48.780;9.158;2023-04-01T01:46:11;9.90;47.60
728;DHT22;347;48.780;9.158;2023-04-01T01:48:40;9.90;47.60
728;DHT22;347;48.780;9.158;2023-04-01T01:51:07;9.90;47.70
728;DHT22;347;48.780;9.158;2023-04-01T01:53:33;9.90;48.50
728;DHT22;347;48.780;9.158;2023-04-01T01:55:59;9.90;48.20
728;DHT22;347;48.780;9.158;2023-04-01T01:58:39;9.90;49.10
728;DHT22;347;48.780;9.158;2023-04-01T02:01:11;10.00;47.70
728;DHT22;347;48.780;9.158;2023-04-01T02:03:39;10.00;47.30
728;DHT22;347;48.780;9.158;2023-04-01T02:06:08;10.00;46.10
728;DHT22;347;48.780;9.158;2023-04-01T02:08:43;10.00;47.20
728;DHT22;347;48.780;9.158;2023-04-01T02:11:12;9.80;47.50
728;DHT22;347;48.780;9.158;2023-04-01T02:16:10;9.90;47.00
728;DHT22;347;48.780;9.158;2023-04-01T02:18:38;10.00;46.60
728;DHT22;347;48.780;9.158;2023-04-01T02:21:05;10.00;46.20
728;DHT22;347;48.780;9.158;2023-04-01T02:23:35;10.00;46.20
728;DHT22;347;48.780;9.158;2023-04-01T02:26:01;9.90;47.10
728;DHT22;347;48.780;9.158;2023-04-01T02:28:28;9.90;47.60
728;DHT22;347;48.780;9.158;2023-04-01T02:30:55;9.90;47.50
728;DHT22;347;48.780;9.158;2023-04-01T02:33:21;9.90;47.30
728;DHT22;347;48.780;9.158;2023-04-01T02:35:47;9.90;46.60
728;DHT22;347;48.780;9.158;2023-04-01T02:38:13;10.00;46.40
728;DHT22;347;48.780;9.158;2023-04-01T02:40:49;9.90;45.80
728;DHT22;347;48.780;9.158;2023-04-01T02:43:16;10.00;45.90
728;DHT22;347;48.780;9.158;2023-04-01T02:45:42;9.90;45.40
728;DHT22;347;48.780;9.158;2023-04-01T02:48:08;9.90;45.00
728;DHT22;347;48.780;9.158;2023-04-01T02:50:34;9.80;46.00
728;DHT22;347;48.780;9.158;2023-04-01T02:53:01;9.70;45.40
728;DHT22;347;48.780;9.158;2023-04-01T02:55:29;9.60;45.20
728;DHT22;347;48.780;9.158;2023-04-01T02:57:55;9.60;45.70
728;DHT22;347;48.780;9.158;2023-04-01T03:00:21;9.70;45.90
728;DHT22;347;48.780;9.158;2023-04-01T03:02:47;9.60;45.30
728;DHT22;347;48.780;9.158;2023-04-01T03:05:12;9.60;45.20
728;DHT22;347;48.780;9.158;2023-04-01T03:07:38;9.60;45.10
728;DHT22;347;48.780;9.158;2023-04-01T03:10:05;9.60;45.40
728;DHT22;347;48.780;9.158;2023-04-01T03:12:31;9.60;45.50
728;DHT22;347;48.780;9.158;2023-04-01T03:14:56;9.70;45.90
728;DHT22;347;48.780;9.158;2023-04-01T03:17:22;9.70;45.40
728;DHT22;347;48.780;9.158;2023-04-01T03:19:48;9.70;45.20
728;DHT22;347;48.780;9.158;2023-04-01T03:22:13;9.70;44.50
728;DHT22;347;48.780;9.158;2023-04-01T03:24:40;9.70;45.30
728;DHT22;347;48.780;9.158;2023-04-01T03:27:05;9.70;44.40
728;DHT22;347;48.780;9.158;2023-04-01T03:29:31;9.70;45.20
728;DHT22;347;48.780;9.158;2023-04-01T03:31:56;9.70;44.20
728;DHT22;347;48.780;9.158;2023-04-01T03:34:24;9.60;44.40
728;DHT22;347;48.780;9.158;2023-04-01T03:36:49;9.70;44.20
728;DHT22;347;48.780;9.158;2023-04-01T03:39:16;9.70;44.40
728;DHT22;347;48.780;9.158;2023-04-01T03:41:47;9.80;43.40
728;DHT22;347;48.780;9.158;2023-04-01T03:44:12;9.90;42.50
728;DHT22;347;48.780;9.158;2023-04-01T03:46:38;10.00;41.60
728;DHT22;347;48.780;9.158;2023-04-01T03:49:07;10.00;41.60
728;DHT22;347;48.780;9.158;2023-04-01T03:51:38;10.10;41.10
728;DHT22;347;48.780;9.158;2023-04-01T03:54:04;10.10;41.30
728;DHT22;347;48.780;9.158;2023-04-01T03:56:30;10.00;40.10
728;DHT22;347;48.780;9.158;2023-04-01T03:58:56;10.00;39.70
728;DHT22;347;48.780;9.158;2023-04-01T04:01:22;9.90;40.40
728;DHT22;347;48.780;9.158;2023-04-01T04:03:49;9.90;40.60
728;DHT22;347;48.780;9.158;2023-04-01T04:06:16;9.90;40.90
728;DHT22;347;48.780;9.158;2023-04-01T04:08:43;9.90;40.80
728;DHT22;347;48.780;9.158;2023-04-01T04:11:08;9.90;40.50
728;DHT22;347;48.780;9.158;2023-04-01T04:13:34;9.90;40.10
728;DHT22;347;48.780;9.158;2023-04-01T04:16:01;9.80;41.70
728;DHT22;347;48.780;9.158;2023-04-01T04:18:27;9.80;42.30
728;DHT22;347;48.780;9.158;2023-04-01T04:20:53;9.70;40.70
728;DHT22;347;48.780;9.158;2023-04-01T04:23:18;9.80;42.30
728;DHT22;347;48.780;9.158;2023-04-01T04:25:58;9.70;40.70
728;DHT22;347;48.780;9.158;2023-04-01T04:28:25;9.70;41.40
728;DHT22;347;48.780;9.158;2023-04-01T04:30:51;9.70;41.50
728;DHT22;347;48.780;9.158;2023-04-01T04:33:17;9.70;41.00
728;DHT22;347;48.780;9.158;2023-04-01T04:35:43;9.70;41.70
728;DHT22;347;48.780;9.158;2023-04-01T04:38:09;9.70;42.30
728;DHT22;347;48.780;9.158;2023-04-01T04:40:36;9.70;42.30
728;DHT22;347;48.780;9.158;2023-04-01T04:43:03;9.60;42.20
728;DHT22;347;48.780;9.158;2023-04-01T04:45:29;9.60;42.20
728;DHT22;347;48.780;9.158;2023-04-01T04:47:54;9.60;42.20
728;DHT22;347;48.780;9.158;2023-04-01T04:50:20;9.60;41.60
728;DHT22;347;48.780;9.158;2023-04-01T04:52:46;9.60;42.20
728;DHT22;347;48.780;9.158;2023-04-01T04:55:11;9.50;42.10
728;DHT22;347;48.780;9.158;2023-04-01T04:57:37;9.40;43.10
728;DHT22;347;48.780;9.158;2023-04-01T05:00:03;9.30;43.30
728;DHT22;347;48.780;9.158;2023-04-01T05:02:29;9.30;44.00
728;DHT22;347;48.780;9.158;2023-04-01T05:04:55;9.30;44.00
728;DHT22;347;48.780;9.158;2023-04-01T05:07:20;9.10;44.40
728;DHT22;347;48.780;9.158;2023-04-01T05:09:46;9.10;45.50
728;DHT22;347;48.780;9.158;2023-04-01T05:12:12;9.10;45.00
728;DHT22;347;48.780;9.158;2023-04-01T05:14:38;9.10;45.10
728;DHT22;347;48.780;9.158;2023-04-01T05:17:07;9.10;44.80
728;DHT22;347;48.780;9.158;2023-04-01T05:19:33;9.00;44.90
728;DHT22;347;48.780;9.158;2023-04-01T05:21:59;9.10;45.80
728;DHT22;347;48.780;9.158;2023-04-01T05:24:24;9.10;44.80
728;DHT22;347;48.780;9.158;2023-04-01T05:26:50;9.10;44.80
728;DHT22;347;48.780;9.158;2023-04-01T05:29:16;9.20;44.90
728;DHT22;347;48.780;9.158;2023-04-01T05:31:41;9.20;44.90
728;DHT22;347;48.780;9.158;2023-04-01T05:34:07;9.30;45.00
728;DHT22;347;48.780;9.158;2023-04-01T05:36:33;9.30;44.50
728;DHT22;347;48.780;9.158;2023-04-01T05:38:59;9.50;44.80
728;DHT22;347;48.780;9.158;2023-04-01T05:41:25;9.50;44.20
728;DHT22;347;48.780;9.158;2023-04-01T05:43:51;9.50;44.70
728;DHT22;347;48.780;9.158;2023-04-01T05:46:16;9.60;44.00
728;DHT22;347;48.780;9.158;2023-04-01T05:48:42;9.70;43.60
728;DHT22;347;48.780;9.158;2023-04-01T05:51:13;9.70;41.80
728;DHT22;347;48.780;9.158;2023-04-01T05:53:39;9.80;42.40
728;DHT22;347;48.780;9.158;2023-04-01T05:56:05;9.80;42.20
728;DHT22;347;48.780;9.158;2023-04-01T05:58:31;9.80;40.80
728;DHT22;347;48.780;9.158;2023-04-01T06:01:05;9.80;41.90
728;DHT22;347;48.780;9.158;2023-04-01T06:03:32;9.80;42.10
728;DHT22;347;48.780;9.158;2023-04-01T06:05:57;9.80;40.10
728;DHT22;347;48.780;9.158;2023-04-01T06:08:24;9.90;40.00
728;DHT22;347;48.780;9.158;2023-04-01T06:28:22;10.00;37.00
728;DHT22;347;48.780;9.158;2023-04-01T06:45:38;10.00;37.80
728;DHT22;347;48.780;9.158;2023-04-01T06:54:29;10.10;37.30
728;DHT22;347;48.780;9.158;2023-04-01T06:57:05;10.10;37.80
728;DHT22;347;48.780;9.158;2023-04-01T06:59:35;10.10;37.90
728;DHT22;347;48.780;9.158;2023-04-01T07:02:24;10.20;38.20
728;DHT22;347;48.780;9.158;2023-04-01T07:04:53;10.20;37.80
728;DHT22;347;48.780;9.158;2023-04-01T07:09:57;10.30;38.50
728;DHT22;347;48.780;9.158;2023-04-01T07:12:49;10.20;37.20
728;DHT22;347;48.780;9.158;2023-04-01T07:15:20;10.20;37.60
728;DHT22;347;48.780;9.158;2023-04-01T07:17:49;10.30;38.00
728;DHT22;347;48.780;9.158;2023-04-01T07:20:27;10.30;38.20
728;DHT22;347;48.780;9.158;2023-04-01T07:22:58;10.20;38.20
728;DHT22;347;48.780;9.158;2023-04-01T07:25:31;10.30;39.10
728;DHT22;347;48.780;9.158;2023-04-01T07:28:11;10.30;38.50
728;DHT22;347;48.780;9.158;2023-04-01T07:39:03;10.20;38.70
728;DHT22;347;48.780;9.158;2023-04-01T07:54:50;10.20;38.50
728;DHT22;347;48.780;9.158;2023-04-01T07:57:27;10.30;38.70
728;DHT22;347;48.780;9.158;2023-04-01T08:05:13;10.30;38.30
728;DHT22;347;48.780;9.158;2023-04-01T08:10:55;10.40;37.90
728;DHT22;347;48.780;9.158;2023-04-01T08:16:23;10.40;38.00
728;DHT22;347;48.780;9.158;2023-04-01T08:21:37;10.40;37.90
728;DHT22;347;48.780;9.158;2023-04-01T08:24:33;10.40;39.10
728;DHT22;347;48.780;9.158;2023-04-01T08:27:03;10.50;40.20
728;DHT22;347;48.780;9.158;2023-04-01T08:29:41;10.50;39.60
728;DHT22;347;48.780;9.158;2023-04-01T08:32:18;10.50;39.10
728;DHT22;347;48.780;9.158;2023-04-01T08:34:50;10.60;40.30
728;DHT22;347;48.780;9.158;2023-04-01T08:37:28;10.60;41.40
728;DHT22;347;48.780;9.158;2023-04-01T08:43:12;10.50;40.40
728;DHT22;347;48.780;9.158;2023-04-01T08:45:47;10.60;42.40
728;DHT22;347;48.780;9.158;2023-04-01T08:57:53;10.20;45.40
728;DHT22;347;48.780;9.158;2023-04-01T09:06:10;10.20;46.70
728;DHT22;347;48.780;9.158;2023-04-01T09:19:17;10.20;45.00
728;DHT22;347;48.780;9.158;2023-04-01T09:22:08;10.30;45.30
728;DHT22;347;48.780;9.158;2023-04-01T09:24:40;10.40;45.00
728;DHT22;347;48.780;9.158;2023-04-01T09:27:26;10.30;43.50
728;DHT22;347;48.780;9.158;2023-04-01T09:35:38;10.50;43.60
728;DHT22;347;48.780;9.158;2023-04-01T09:41:23;10.80;40.80
728;DHT22;347;48.780;9.158;2023-04-01T09:49:59;10.70;42.20
728;DHT22;347;48.780;9.158;2023-04-01T09:52:43;10.60;41.40
728;DHT22;347;48.780;9.158;2023-04-01T10:23:22;10.70;39.90
728;DHT22;347;48.780;9.158;2023-04-01T10:26:31;10.70;36.70
728;DHT22;347;48.780;9.158;2023-04-01T10:30:13;10.80;37.70
728;DHT22;347;48.780;9.158;2023-04-01T10:32:30;10.90;37.90
728;DHT22;347;48.780;9.158;2023-04-01T10:43:56;11.10;35.50
728;DHT22;347;48.780;9.158;2023-04-01T10:46:50;11.20;35.20
728;DHT22;347;48.780;9.158;2023-04-01T11:12:03;11.30;37.10
728;DHT22;347;48.780;9.158;2023-04-01T11:39:33;11.90;32.20
728;DHT22;347;48.780;9.158;2023-04-01T11:45:20;12.00;32.70
728;DHT22;347;48.780;9.158;2023-04-01T11:53:52;12.10;31.40
728;DHT22;347;48.780;9.158;2023-04-01T11:59:43;12.00;29.40
728;DHT22;347;48.780;9.158;2023-04-01T12:14:40;11.70;33.00
728;DHT22;347;48.780;9.158;2023-04-01T12:18:13;11.70;34.20
728;DHT22;347;48.780;9.158;2023-04-01T12:20:36;11.80;33.10
728;DHT22;347;48.780;9.158;2023-04-01T12:26:15;11.50;34.50
728;DHT22;347;48.780;9.158;2023-04-01T12:31:52;11.50;34.50
728;DHT22;347;48.780;9.158;2023-04-01T12:56:02;12.10;32.10
728;DHT22;347;48.780;9.158;2023-04-01T13:06:27;11.90;30.20
728;DHT22;347;48.780;9.158;2023-04-01T13:09:24;12.00;30.00
728;DHT22;347;48.780;9.158;2023-04-01T13:14:45;11.80;29.90
728;DHT22;347;48.780;9.158;2023-04-01T13:17:58;11.80;31.10
728;DHT22;347;48.780;9.158;2023-04-01T13:29:14;11.80;31.00
728;DHT22;347;48.780;9.158;2023-04-01T13:38:08;11.80;30.40
728;DHT22;347;48.780;9.158;2023-04-01T13:43:34;12.00;30.50
728;DHT22;347;48.780;9.158;2023-04-01T13:51:46;12.00;30.50
728;DHT22;347;48.780;9.158;2023-04-01T13:54:46;12.00;30.40
728;DHT22;347;48.780;9.158;2023-04-01T14:06:34;11.80;30.00
728;DHT22;347;48.780;9.158;2023-04-01T14:21:08;11.80;32.10
728;DHT22;347;48.780;9.158;2023-04-01T14:45:18;11.70;36.70
728;DHT22;347;48.780;9.158;2023-04-01T14:50:45;11.70;35.80
728;DHT22;347;48.780;9.158;2023-04-01T14:53:26;11.70;35.60
728;DHT22;347;48.780;9.158;2023-04-01T14:55:57;11.60;34.70
728;DHT22;347;48.780;9.158;2023-04-01T14:58:25;11.60;33.50
728;DHT22;347;48.780;9.158;2023-04-01T15:01:17;11.60;34.60
728;DHT22;347;48.780;9.158;2023-04-01T15:09:29;11.50;33.60
728;DHT22;347;48.780;9.158;2023-04-01T15:31:51;12.00;32.00
728;DHT22;347;48.780;9.158;2023-04-01T15:34:37;12.00;31.60
728;DHT22;347;48.780;9.158;2023-04-01T15:39:56;12.00;32.10
728;DHT22;347;48.780;9.158;2023-04-01T16:04:58;11.90;32.60
728;DHT22;347;48.780;9.158;2023-04-01T16:07:37;11.90;32.00
728;DHT22;347;48.780;9.158;2023-04-01T16:21:35;12.00;30.40
728;DHT22;347;48.780;9.158;2023-04-01T16:26:52;12.00;30.20
728;DHT22;347;48.780;9.158;2023-04-01T16:32:31;12.10;30.20
728;DHT22;347;48.780;9.158;2023-04-01T16:37:43;11.90;30.10
728;DHT22;347;48.780;9.158;2023-04-01T16:40:40;11.90;30.10
728;DHT22;347;48.780;9.158;2023-04-01T16:43:25;11.80;30.40
728;DHT22;347;48.780;9.158;2023-04-01T16:51:18;11.70;31.20
728;DHT22;347;48.780;9.158;2023-04-01T16:53:53;11.70;31.60
728;DHT22;347;48.780;9.158;2023-04-01T16:56:42;11.90;31.40
728;DHT22;347;48.780;9.158;2023-04-01T16:59:21;11.90;31.40
728;DHT22;347;48.780;9.158;2023-04-01T17:01:55;12.00;31.70
728;DHT22;347;48.780;9.158;2023-04-01T17:04:47;12.00;31.40
728;DHT22;347;48.780;9.158;2023-04-01T17:07:15;12.00;31.70
728;DHT22;347;48.780;9.158;2023-04-01T17:13:02;12.00;31.40
728;DHT22;347;48.780;9.158;2023-04-01T17:32:09;11.80;32.70
728;DHT22;347;48.780;9.158;2023-04-01T17:35:03;11.80;32.60
728;DHT22;347;48.780;9.158;2023-04-01T17:40:29;11.70;32.90
728;DHT22;347;48.780;9.158;2023-04-01T17:44:04;11.70;32.80
728;DHT22;347;48.780;9.158;2023-04-01T17:46:38;11.70;32.90
728;DHT22;347;48.780;9.158;2023-04-01T17:54:50;11.90;33.20
728;DHT22;347;48.780;9.158;2023-04-01T17:57:59;11.90;34.70
728;DHT22;347;48.780;9.158;2023-04-01T18:19:40;12.60;35.10
728;DHT22;347;48.780;9.158;2023-04-01T18:22:23;12.50;36.60
728;DHT22;347;48.780;9.158;2023-04-01T18:27:42;12.00;38.30
728;DHT22;347;48.780;9.158;2023-04-01T18:30:26;11.80;39.50
728;DHT22;347;48.780;9.158;2023-04-01T18:33:02;11.70;39.90
728;DHT22;347;48.780;9.158;2023-04-01T18:38:30;11.30;41.50
728;DHT22;347;48.780;9.158;2023-04-01T18:51:51;10.80;39.40
728;DHT22;347;48.780;9.158;2023-04-01T18:54:33;10.80;41.20
728;DHT22;347;48.780;9.158;2023-04-01T18:57:15;10.90;39.50
728;DHT22;347;48.780;9.158;2023-04-01T19:04:57;10.80;37.80
728;DHT22;347;48.780;9.158;2023-04-01T19:07:48;10.90;38.10
728;DHT22;347;48.780;9.158;2023-04-01T19:10:57;10.90;36.80
728;DHT22;347;48.780;9.158;2023-04-01T19:18:52;11.00;37.10
728;DHT22;347;48.780;9.158;2023-04-01T19:21:42;11.30;35.90
728;DHT22;347;48.780;9.158;2023-04-01T19:30:10;11.10;36.00
728;DHT22;347;48.780;9.158;2023-04-01T19:38:31;10.70;38.00
728;DHT22;347;48.780;9.158;2023-04-01T19:41:37;10.80;38.00
728;DHT22;347;48.780;9.158;2023-04-01T19:46:53;10.70;38.10
728;DHT22;347;48.780;9.158;2023-04-01T19:52:14;10.70;38.20
728;DHT22;347;48.780;9.158;2023-04-01T19:57:55;10.80;37.40
728;DHT22;347;48.780;9.158;2023-04-01T20:00:28;10.80;37.40
728;DHT22;347;48.780;9.158;2023-04-01T20:06:12;10.90;36.70
728;DHT22;347;48.780;9.158;2023-04-01T20:08:42;10.80;36.50
728;DHT22;347;48.780;9.158;2023-04-01T20:19:41;10.60;37.30
728;DHT22;347;48.780;9.158;2023-04-01T20:24:48;10.70;38.30
728;DHT22;347;48.780;9.158;2023-04-01T20:27:20;10.70;37.60
728;DHT22;347;48.780;9.158;2023-04-01T20:41:06;10.70;37.40
728;DHT22;347;48.780;9.158;2023-04-01T20:46:22;10.70;37.40
728;DHT22;347;48.780;9.158;2023-04-01T20:51:45;10.80;36.30
728;DHT22;347;48.780;9.158;2023-04-01T20:59:41;10.80;37.10
728;DHT22;347;48.780;9.158;2023-04-01T21:05:45;10.70;37.40
728;DHT22;347;48.780;9.158;2023-04-01T21:11:35;10.60;37.90
728;DHT22;347;48.780;9.158;2023-04-01T21:14:51;10.70;37.90
728;DHT22;347;48.780;9.158;2023-04-01T21:17:14;10.80;37.70
728;DHT22;347;48.780;9.158;2023-04-01T21:26:13;10.70;37.80
728;DHT22;347;48.780;9.158;2023-04-01T21:28:59;10.80;38.20
728;DHT22;347;48.780;9.158;2023-04-01T21:49:09;10.70;38.10
728;DHT22;347;48.780;9.158;2023-04-01T21:52:16;10.70;37.80
728;DHT22;347;48.780;9.158;2023-04-01T21:54:39;10.60;38.50
728;DHT22;347;48.780;9.158;2023-04-01T21:57:27;10.60;38.60
728;DHT22;347;48.780;9.158;2023-04-01T22:00:35;10.80;38.70
728;DHT22;347;48.780;9.158;2023-04-01T22:06:13;10.70;37.40
728;DHT22;347;48.780;9.158;2023-04-01T22:11:23;10.50;37.00
728;DHT22;347;48.780;9.158;2023-04-01T22:14:03;10.40;37.50
728;DHT22;347;48.780;9.158;2023-04-01T22:16:41;10.40;37.30
728;DHT22;347;48.780;9.158;2023-04-01T22:21:59;10.60;37.30
728;DHT22;347;48.780;9.158;2023-04-01T22:32:42;10.40;35.90
728;DHT22;347;48.780;9.158;2023-04-01T22:40:27;10.50;36.40
728;DHT22;347;48.780;9.158;2023-04-01T22:43:01;10.50;35.70
728;DHT22;347;48.780;9.158;2023-04-01T22:51:18;10.40;36.10
728;DHT22;347;48.780;9.158;2023-04-01T22:54:32;10.40;35.70
728;DHT22;347;48.780;9.158;2023-04-01T22:59:39;10.60;36.30
728;DHT22;347;48.780;9.158;2023-04-01T23:02:25;10.60;34.90
728;DHT22;347;48.780;9.158;2023-04-01T23:04:56;10.60;35.70
728;DHT22;347;48.780;9.158;2023-04-01T23:10:48;10.60;35.20
728;DHT22;347;48.780;9.158;2023-04-01T23:13:20;10.50;35.10
728;DHT22;347;48.780;9.158;2023-04-01T23:15:51;10.40;35.80
728;DHT22;347;48.780;9.158;2023-04-01T23:18:20;10.50;35.70
728;DHT22;347;48.780;9.158;2023-04-01T23:26:15;10.40;36.00
728;DHT22;347;48.780;9.158;2023-04-01T23:28:56;10.50;35.70
728;DHT22;347;48.780;9.158;2023-04-01T23:31:31;10.30;35.90
728;DHT22;347;48.780;9.158;2023-04-01T23:34:21;10.40;36.00
728;DHT22;347;48.780;9.158;2023-04-01T23:36:50;10.20;36.20
728;DHT22;347;48.780;9.158;2023-04-01T23:39:36;10.20;36.50
728;DHT22;347;48.780;9.158;2023-04-01T23:42:23;10.10;36.80
728;DHT22;347;48.780;9.158;2023-04-01T23:44:55;10.00;37.10
728;DHT22;347;48.780;9.158;2023-04-01T23:47:25;10.10;37.20
728;DHT22;347;48.780;9.158;2023-04-01T23:52:26;10.40;36.60
728;DHT22;347;48.780;9.158;2023-04-01T23:54:57;10.50;35.70
728;DHT22;347;48.780;9.158;2023-04-01T23:57:30;10.70;35.50
